Tiempo atmosférico en la estación meteorológica de Llorac, Tarragona (660 m.)



Fecha
DESCASC
Temp. máxima en grados centígrados (hora)
DESCASC
Temp. mínima en grados centígrados (hora)
DESCASC
Temp. media en grados centígrados
DESCASC
Racha de viento máxima en m/sg (hora)
DESCASC
Velocidad máxima media en intervalos de 10 minutos(hora)
DESCASC
Precipitaciones diarias en mm
DESCASC
Precipitaciones de 00:00 a 06:00 en mm
DESCASC
Precipitaciones de 06:00 a 12:00 en mm
DESCASC
Precipitaciones de 12:00 a 18:00 en mm
DESCASC
Precipitaciones de 18:00 a 24:00 en mm
DESCASC
18-04-2019 15.8 (15:30) 8.1 (07:20) 12 18.06 (14:30) 11.39 (14:00) 0 0 0 0 0
17-04-2019 17.3 (16:10) 1.8 (06:40) 9.5 9.72 (16:50) 5.83 (17:40) 0 0 0 0 0
16-04-2019 16.4 (17:10) 2.5 (00:00) 9.4 7.5 (16:30) 4.72 (19:00) 0.4 0.4 0 0 0
15-04-2019 14.1 (13:10) 3.8 (00:00) 9 10.83 (13:50) 6.94 (14:50) 0 0 0 0 0
14-04-2019 21.1 (17:40) -1.9 (-00:0) 9.6 13.89 (14:00) 8.89 (13:30) 0 0 0 0 0
13-04-2019 17.7 (16:40) -3.1 (-00:0) 7.3 10.28 (17:10) 6.94 (18:50) 0 0 0 0 0
12-04-2019 16.6 (17:40) 2.9 (00:00) 9.8 11.39 (13:50) 8.33 (14:30) 0 0 0 0 0
11-04-2019 15.9 (16:20) 1 (00:00) 8.4 12.22 (15:30) 7.78 (13:00) 1.2 0 0 0 1.2
10-04-2019 14.6 (17:10) 3.6 (00:00) 9.1 9.17 (12:00) 6.39 (09:20) 0 0 0 0 0
09-04-2019 15.2 (17:20) 1.5 (00:00) 8.3 12.78 (14:00) 9.17 (15:30) 1.8 0 0 0 1.8
08-04-2019 14.9 (17:30) -0.7 (-00:0) 7.1 11.94 (16:40) 8.33 (17:00) 0 0 0 0 0
07-04-2019 13.2 (16:20) -1.8 (-00:0) 5.7 12.5 (11:40) 8.61 (10:30) 0.2 0 0 0 0.2
06-04-2019 -- (--) -- (--) -- -- (--) -- (--) 2 2 0 0 0
05-04-2019 11.9 (16:20) -2.3 (-00:0) 4.8 11.11 (18:20) 6.67 (18:20) 6.6 0 1.2 0.6 4.8
04-04-2019 10.9 (17:30) -2.3 (-00:0) 4.3 12.5 (12:30) 8.61 (13:00) 0 0 0 0 0
03-04-2019 11.5 (14:30) 3.2 (01:00) 7.4 12.78 (22:20) 8.06 (23:50) 1 0 0 1 0
02-04-2019 16.9 (15:50) 0.9 (00:00) 8.9 9.44 (15:50) 6.11 (17:20) 0 0 0 0 0
01-04-2019 16.6 (16:10) 3.8 (00:00) 10.2 7.22 (15:40) 4.72 (15:40) 0 0 0 0 0
31-03-2019 14.8 (16:00) -1.4 (-00:0) 6.7 7.78 (17:00) 4.72 (10:50) 0 0 0 0 0
30-03-2019 14.9 (13:40) -3.1 (-00:0) 5.9 8.89 (12:30) 4.44 (15:40) 0 0 0 0 0
29-03-2019 15.2 (12:20) -1.2 (-00:0) 7 9.17 (15:30) 4.72 (15:10) 0 0 0 0 0
28-03-2019 16 (15:20) -3.9 (-00:0) 6 8.33 (18:30) 4.17 (16:00) 0 0 0 0 0
27-03-2019 15.9 (17:10) -5.2 (-00:0) 5.3 7.78 (12:40) 5.28 (12:50) 0 0 0 0 0
26-03-2019 15.8 (16:40) -3.2 (-00:0) 6.3 9.44 (19:20) 7.22 (09:20) 0 0 0 0 0
25-03-2019 17.1 (16:20) -1.1 (-00:0) 8 11.67 (18:00) 7.78 (12:40) 0 0 0 0 0
24-03-2019 20.1 (13:20) -1.1 (-00:0) 9.5 8.06 (14:30) 4.72 (13:30) 0 0 0 0 0
23-03-2019 20 (16:40) -2.2 (-00:0) 8.9 8.06 (14:30) 4.72 (14:20) 0 0 0 0 0
22-03-2019 18 (15:40) -3.6 (-00:0) 7.2 8.89 (15:20) 3.89 (16:30) 0 0 0 0 0
21-03-2019 14.7 (15:20) -5.8 (-00:0) 4.4 6.67 (15:00) 3.89 (10:00) 0 0 0 0 0

Gráficas

Temp. máximas Temp. mínimas Temp. medias Precipitaciones Rachas de viento máximas Velocidades máximas media en intervalos de 10 minutos

Datos horarios

Fecha y hora oficial Temperatura (ºC) Velocidad del viento (km/h) Dirección del viento Racha (km/h) Dirección de racha Precipitación (mm) Presión (hPa) Tendencia (hPa) Humedad (%)
2019-04-19 23:00:00 12.3 9 Este 28 Este 0 -- -- 51
2019-04-19 22:00:00 12.8 12 Sudeste 29 Este 0 -- -- 54
2019-04-19 21:00:00 13.6 8 Este 30 Este 0 -- -- 50
2019-04-19 20:00:00 14.7 16 Sudeste 48 Sudeste 0 -- -- 49
2019-04-19 19:00:00 16.1 31 Sudeste 48 Este 0 -- -- 41
2019-04-19 18:00:00 18.1 27 Sudeste 61 Sudeste 0 -- -- 36
2019-04-19 17:00:00 17.8 24 Sudeste 52 Sudeste 0 -- -- 46
2019-04-19 16:00:00 17.9 30 Sudeste 54 Sudeste 0 -- -- 45
2019-04-19 15:00:00 17.7 36 Sudeste 71 Sudeste 0 -- -- 43
2019-04-19 14:00:00 16.8 36 Sudeste 57 Sudeste 0 -- -- 52
2019-04-19 13:00:00 15.7 24 Sudeste 56 Este 0 -- -- 57
2019-04-19 12:00:00 14.7 28 Sudeste 56 Este 0 -- -- 60
2019-04-19 11:00:00 14.1 25 Sudeste 49 Sudeste 0 -- -- 60
2019-04-19 10:00:00 13.1 30 Sudeste 48 Sudeste 0 -- -- 61
2019-04-19 09:00:00 12.1 33 Sudeste 53 Sudeste 0 -- -- 65
2019-04-19 08:00:00 10.8 26 Sudeste 40 Sudeste 0 -- -- 68
2019-04-19 07:00:00 10.5 23 Sudeste 41 Sudeste 0 -- -- 67
2019-04-19 06:00:00 10.4 21 Sudeste 39 Sudeste 0 -- -- 68
2019-04-19 05:00:00 10.5 24 Sudeste 37 Sudeste 0 -- -- 68
2019-04-19 04:00:00 10.5 21 Sudeste 43 Sudeste 0 -- -- 68
2019-04-19 03:00:00 10.3 20 Sudeste 34 Este 0 -- -- 67
2019-04-19 02:00:00 10.5 18 Sudeste 36 Sudeste 0 -- -- 64
2019-04-19 01:00:00 11 27 Sudeste 51 Sudeste 0 -- -- 61
2019-04-19 00:00:00 11.3 33 Sudeste 55 Sudeste 0 -- -- 62
2019-04-18 23:00:00 11.5 30 Sudeste 57 Sudeste 0 -- -- 63
2019-04-18 22:00:00 11.4 32 Sudeste 60 Sudeste 0 -- -- 69
2019-04-18 21:00:00 12 34 Sudeste 53 Sudeste 0 -- -- 61
2019-04-18 20:00:00 13.2 27 Sudeste 52 Este 0 -- -- 62
2019-04-18 19:00:00 13.7 29 Sudeste 58 Sudeste 0 -- -- 63
2019-04-18 18:00:00 14 28 Sudeste 58 Sur 0 -- -- 63
2019-04-18 17:00:00 14.5 32 Sudeste 53 Sudeste 0 -- -- 64
2019-04-18 16:00:00 15.7 29 Sudeste 50 Sudeste 0 -- -- 53
2019-04-18 15:00:00 14.9 31 Sudeste 65 Sudeste 0 -- -- 52
2019-04-18 14:00:00 14.2 41 Sudeste 63 Sudeste 0 -- -- 55
2019-04-18 13:00:00 12.7 24 Sudeste 38 Sudeste 0 -- -- 66
2019-04-18 12:00:00 11.9 21 Este 35 Sudeste 0 -- -- 67
2019-04-18 11:00:00 10.6 13 Sudeste 28 Sudeste 0 -- -- 67
2019-04-18 10:00:00 10.6 17 Sudeste 29 Sudeste 0 -- -- 66
2019-04-18 09:00:00 9.6 15 Sudeste 24 Sudeste 0 -- -- 83
2019-04-18 08:00:00 8.3 10 Sudeste 22 Sudeste 0 -- -- 90
2019-04-18 07:00:00 8.3 14 Sudeste 28 Sudeste 0 -- -- 90
2019-04-18 06:00:00 9 13 Sudeste 29 Sudeste 0 -- -- 91
2019-04-18 05:00:00 9.4 14 Sudeste 26 Sudeste 0 -- -- 90
2019-04-18 04:00:00 9.1 12 Sudeste 20 Sudeste 0 -- -- 92
2019-04-18 03:00:00 9 13 Sudeste 25 Sudeste 0 -- -- 92
2019-04-18 02:00:00 9.2 19 Sudeste 28 Sudeste 0 -- -- 92
2019-04-18 01:00:00 8.7 17 Sudeste 28 Sudeste 0 -- -- 94
2019-04-18 00:00:00 8.7 17 Sudeste 22 Sudeste 0 -- -- 87
2019-04-17 23:00:00 9.2 17 Sudeste 23 Sudeste 0 -- -- 77
2019-04-17 22:00:00 9.9 15 Sudeste 26 Sudeste 0 -- -- 70
2019-04-17 21:00:00 11 16 Sudeste 26 Sudeste 0 -- -- 69
2019-04-17 20:00:00 12.4 18 Sudeste 26 Sudeste 0 -- -- 69
2019-04-17 19:00:00 13.8 17 Sudeste 29 Sur 0 -- -- 65
2019-04-17 18:00:00 15.4 18 Sudeste 32 Sudeste 0 -- -- 60
2019-04-17 17:00:00 16.4 18 Sur 35 Sudeste 0 -- -- 57
2019-04-17 16:00:00 17.1 20 Sudeste 30 Sudeste 0 -- -- 55
2019-04-17 15:00:00 16.3 18 Sudeste 29 Sudeste 0 -- -- 60
2019-04-17 14:00:00 14.9 17 Sudeste 31 Sudeste 0 -- -- 65
2019-04-17 13:00:00 15.1 15 Sudeste 29 Sudeste 0 -- -- 61
2019-04-17 12:00:00 15.2 17 Sur 30 Sudeste 0 -- -- 64
2019-04-17 11:00:00 13.8 18 Sudeste 32 Sudeste 0 -- -- 68
2019-04-17 10:00:00 11.9 18 Sudeste 25 Sudeste 0 -- -- 79
2019-04-17 09:00:00 8.9 13 Sudeste 18 Sudeste 0 -- -- 100
2019-04-17 08:00:00 4.8 8 Sudeste 12 Sudeste 0 -- -- 100
2019-04-17 07:00:00 2.3 4 Sudeste 9 Sudeste 0 -- -- 100
2019-04-17 06:00:00 2.5 5 Sudeste 8 Sudeste 0 -- -- 98
2019-04-17 05:00:00 5.2 4 Sudeste 16 Este 0 -- -- 96
2019-04-17 04:00:00 7.1 13 Este 19 Este 0 -- -- 97
2019-04-17 03:00:00 7.8 9 Sudeste 20 Sudeste 0 -- -- 95
2019-04-17 02:00:00 8.3 13 Sudeste 21 Sudeste 0 -- -- 93
2019-04-17 01:00:00 8.1 13 Sudeste 19 Sudeste 0 -- -- 93
2019-04-17 00:00:00 7.5 11 Sudeste 21 Sudeste 0 -- -- 95
2019-04-16 23:00:00 7.8 13 Sudeste 24 Sur 0 -- -- 93
2019-04-16 22:00:00 8.3 13 Sudeste 21 Sur 0 -- -- 86
2019-04-16 21:00:00 9.4 12 Sudeste 21 Sudeste 0 -- -- 72
2019-04-16 20:00:00 11.8 11 Sur 23 Sudeste 0 -- -- 67
2019-04-16 19:00:00 13 17 Sudeste 27 Sur 0 -- -- 64
2019-04-16 18:00:00 15.1 14 Sudoeste 23 Sudoeste 0 -- -- 57
2019-04-16 17:00:00 16.3 7 Sur 27 Sudeste 0 -- -- 58
2019-04-16 16:00:00 15 11 Sudeste 18 Sudeste 0 -- -- 59
2019-04-16 15:00:00 13.7 11 Sudeste 15 Sudeste 0 -- -- 65
2019-04-16 14:00:00 14 2 Sur 8 Sudeste 0 -- -- 65
2019-04-16 13:00:00 13.7 5 Oeste 12 Noroeste 0 -- -- 66
2019-04-16 12:00:00 14 6 Sudeste 14 Noroeste 0 -- -- 67
2019-04-16 11:00:00 11.9 7 Noroeste 15 Noroeste 0 -- -- 75
2019-04-16 10:00:00 10.6 5 Oeste 9 Oeste 0 -- -- 80
2019-04-16 09:00:00 6.3 5 Sudeste 8 Sudeste 0 -- -- 92
2019-04-16 08:00:00 2.8 4 Sudeste 6 Sudeste 0 -- -- 98
2019-04-16 07:00:00 3.5 4 Sudeste 7 Este 0 -- -- 96
2019-04-16 06:00:00 4.1 4 Sudeste 6 Sudeste 0 -- -- 96
2019-04-16 05:00:00 4.6 3 Este 9 Este 0 -- -- 92
2019-04-16 04:00:00 5.8 5 Sudeste 11 Sudeste 0 -- -- 91
2019-04-16 03:00:00 5.7 9 Sudeste 18 Este 0 -- -- 89
2019-04-16 02:00:00 5.6 9 Sudeste 12 Sudeste 0.2 -- -- 92
2019-04-16 01:00:00 6.5 6 Sudeste 16 Sudeste 0.2 -- -- 83
2019-04-16 00:00:00 6.9 10 Sudeste 19 Sudeste 0 -- -- 66
2019-04-15 23:00:00 7.6 15 Sudeste 23 Este 0 -- -- 60
2019-04-15 22:00:00 7.8 15 Sudeste 25 Sudeste 0 -- -- 58
2019-04-15 21:00:00 8.9 15 Sudeste 28 Sudeste 0 -- -- 60
2019-04-15 20:00:00 11.1 21 Sudeste 36 Sudeste 0 -- -- 50
2019-04-15 19:00:00 11.9 21 Sudeste 33 Sudeste 0 -- -- 50
2019-04-15 18:00:00 12.3 16 Sudeste 35 Sudeste 0 -- -- 50
2019-04-15 17:00:00 12.7 19 Sudeste 35 Sudeste 0 -- -- 49
2019-04-15 16:00:00 13.4 20 Sur 37 Sudeste 0 -- -- 50
2019-04-15 15:00:00 13.5 23 Sudeste 37 Sudeste 0 -- -- 54
2019-04-15 14:00:00 13.7 20 Sudeste 39 Sudeste 0 -- -- 55
2019-04-15 13:00:00 13.6 18 Sur 36 Sudeste 0 -- -- 57
2019-04-15 12:00:00 12.9 17 Sur 35 Sudeste 0 -- -- 65
2019-04-15 11:00:00 12.3 14 Sur 31 Sudeste 0 -- -- 62
2019-04-15 10:00:00 11.4 17 Sur 31 Sudeste 0 -- -- 68
2019-04-15 09:00:00 9.7 14 Sudeste 22 Sudeste 0 -- -- 69
2019-04-15 08:00:00 4.7 7 Sudeste 13 Sudeste 0 -- -- 92
2019-04-15 07:00:00 3.8 10 Sudeste 14 Sudeste 0 -- -- 95
2019-04-15 06:00:00 4.9 8 Sudeste 14 Sudeste 0 -- -- 92
2019-04-15 05:00:00 7 11 Sudeste 20 Este 0 -- -- 94
2019-04-15 04:00:00 7.5 10 Sudeste 18 Sudeste 0 -- -- 97
2019-04-15 03:00:00 8.3 12 Sudeste 20 Sudeste 0 -- -- 95
2019-04-15 02:00:00 9.1 14 Sudeste 22 Sudeste 0 -- -- 98
2019-04-15 01:00:00 9.1 11 Sudeste 19 Sudeste 0 -- -- 98
2019-04-15 00:00:00 8.6 10 Sudeste 19 Sudeste 0 -- -- 95
2019-04-14 23:00:00 10 14 Este 21 Este 0 -- -- 87
2019-04-14 22:00:00 11 6 Sudeste 19 Sudeste 0 -- -- 83
2019-04-14 21:00:00 12.6 8 Sudeste 24 Sudeste 0 -- -- 77
2019-04-14 20:00:00 14 14 Sur 26 Sur 0 -- -- 69
2019-04-14 19:00:00 16.3 10 Sur 32 Noroeste 0 -- -- 61
2019-04-14 18:00:00 20.6 26 Noroeste 44 Noroeste 0 -- -- 45
2019-04-14 17:00:00 20.1 26 Noroeste 46 Oeste 0 -- -- 45
2019-04-14 16:00:00 19.4 26 Noroeste 43 Noroeste 0 -- -- 45
2019-04-14 15:00:00 18.6 29 Noroeste 43 Noroeste 0 -- -- 44
2019-04-14 14:00:00 17.6 30 Noroeste 50 Oeste 0 -- -- 40
2019-04-14 13:00:00 16.5 28 Noroeste 40 Noroeste 0 -- -- 37
2019-04-14 12:00:00 15.7 22 Noroeste 32 Noroeste 0 -- -- 36
2019-04-14 11:00:00 15.1 19 Noroeste 27 Noroeste 0 -- -- 34
2019-04-14 10:00:00 13.2 16 Noroeste 22 Noroeste 0 -- -- 36
2019-04-14 09:00:00 7.7 9 Noroeste 12 Noroeste 0 -- -- 50
2019-04-14 08:00:00 -1 4 Sudeste 9 Sudeste 0 -- -- 82
2019-04-14 07:00:00 -1.3 8 Sudeste 9 Sudeste 0 -- -- 82
2019-04-14 06:00:00 -1.1 6 Sudeste 9 Sudeste 0 -- -- 80
2019-04-14 05:00:00 -1.8 8 Sudeste 10 Sudeste 0 -- -- 83
2019-04-14 04:00:00 -1.6 7 Sudeste 9 Sudeste 0 -- -- 81
2019-04-14 03:00:00 -0.9 8 Sudeste 10 Sudeste 0 -- -- 77
2019-04-14 02:00:00 0.7 8 Sudeste 11 Sudeste 0 -- -- 75
2019-04-14 01:00:00 1.3 8 Sudeste 14 Sudeste 0 -- -- 74
2019-04-14 00:00:00 1.9 10 Sudeste 13 Sudeste 0 -- -- 73
2019-04-13 23:00:00 2.8 8 Sudeste 10 Sudeste 0 -- -- 68
2019-04-13 22:00:00 5 7 Sudeste 9 Sudeste 0 -- -- 60
2019-04-13 21:00:00 10 2 Este 14 Noroeste 0 -- -- 44
2019-04-13 20:00:00 16.7 11 Noroeste 36 Oeste 0 -- -- 26
2019-04-13 19:00:00 17.3 24 Oeste 36 Noroeste 0 -- -- 25
2019-04-13 18:00:00 17.5 22 Noroeste 37 Noroeste 0 -- -- 26
2019-04-13 17:00:00 17.5 23 Noroeste 34 Noroeste 0 -- -- 24
2019-04-13 16:00:00 17 21 Noroeste 30 Noroeste 0 -- -- 31
2019-04-13 15:00:00 16.1 19 Oeste 32 Noroeste 0 -- -- 32
2019-04-13 14:00:00 15 19 Noroeste 31 Noroeste 0 -- -- 38
2019-04-13 13:00:00 13.6 17 Noroeste 29 Noroeste 0 -- -- 44
2019-04-13 12:00:00 12 17 Noroeste 27 Oeste 0 -- -- 52
2019-04-13 11:00:00 9.9 13 Noroeste 26 Noroeste 0 -- -- 63
2019-04-13 10:00:00 7.4 18 Noroeste 24 Noroeste 0 -- -- 73
2019-04-13 09:00:00 2.8 6 Noroeste 9 Noroeste 0 -- -- 100
2019-04-13 08:00:00 -3 5 Sudeste 8 Sudeste 0 -- -- 100
2019-04-13 07:00:00 -2.7 3 Sudeste 5 Noroeste 0 -- -- 100
2019-04-13 06:00:00 -1.6 3 Noroeste 10 Sudeste 0 -- -- 100
2019-04-13 05:00:00 -0.8 0 Calma 4 Sudeste 0 -- -- 100
2019-04-13 04:00:00 0.2 0 Calma 10 Sudeste 0 -- -- 99
2019-04-13 03:00:00 -0.6 6 Sudeste 9 Sudeste 0 -- -- 97
2019-04-13 02:00:00 0.4 5 Sudeste 10 Sudeste 0 -- -- 96
2019-04-13 01:00:00 1.6 5 Este 14 Sudeste 0 -- -- 95
2019-04-13 00:00:00 2.9 8 Sudeste 11 Sudeste 0 -- -- 90
2019-04-12 23:00:00 6.5 6 Sudeste 14 Sudeste 0 -- -- 82
2019-04-12 22:00:00 6.8 4 Sudeste 9 Sudeste 0 -- -- 64
2019-04-12 21:00:00 12.1 2 Oeste 24 Noroeste 0 -- -- 45
2019-04-12 20:00:00 15.2 17 Noroeste 33 Oeste 0 -- -- 36
2019-04-12 19:00:00 16.3 21 Noroeste 33 Noroeste 0 -- -- 36
2019-04-12 18:00:00 16.5 23 Noroeste 35 Oeste 0 -- -- 36
2019-04-12 17:00:00 16.3 22 Noroeste 36 Oeste 0 -- -- 38
2019-04-12 16:00:00 15.5 23 Noroeste 41 Noroeste 0 -- -- 42
2019-04-12 15:00:00 14.4 27 Noroeste 41 Oeste 0 -- -- 48
2019-04-12 14:00:00 13.3 28 Noroeste 41 Noroeste 0 -- -- 51
2019-04-12 13:00:00 12.3 25 Noroeste 39 Noroeste 0 -- -- 55
2019-04-12 12:00:00 10.6 26 Noroeste 37 Noroeste 0 -- -- 65
2019-04-12 11:00:00 8.8 26 Noroeste 39 Oeste 0 -- -- 74
2019-04-12 10:00:00 6.8 24 Noroeste 34 Noroeste 0 -- -- 82
2019-04-12 09:00:00 4.9 20 Noroeste 28 Noroeste 0 -- -- 90
2019-04-12 08:00:00 3.5 17 Noroeste 23 Noroeste 0 -- -- 92
2019-04-12 07:00:00 3.6 16 Noroeste 23 Noroeste 0 -- -- 89
2019-04-12 06:00:00 4 15 Noroeste 22 Noroeste 0 -- -- 88
2019-04-12 05:00:00 4.4 15 Noroeste 22 Oeste 0 -- -- 87
2019-04-12 04:00:00 4.6 13 Noroeste 19 Oeste 0 -- -- 85
2019-04-12 03:00:00 5.3 15 Noroeste 20 Noroeste 0 -- -- 81
2019-04-12 02:00:00 5.7 8 Noroeste 13 Noroeste 0 -- -- 78
2019-04-12 01:00:00 6 9 Noroeste 13 Norte 0 -- -- 77
2019-04-12 00:00:00 6.5 4 Noroeste 12 Noroeste 0 -- -- 73
2019-04-11 23:00:00 9.8 7 Noroeste 13 Norte 0 -- -- 59
2019-04-11 22:00:00 7.1 3 Este 8 Norte 0 -- -- 92
2019-04-11 21:00:00 8.4 3 Sudeste 6 Sudeste 0 -- -- 87
2019-04-11 20:00:00 11.7 4 Noroeste 40 Noroeste 1.2 -- -- 72
2019-04-11 19:00:00 14.8 17 Noroeste 38 Noroeste 0 -- -- 44
2019-04-11 18:00:00 15.5 23 Noroeste 37 Oeste 0 -- -- 36
2019-04-11 17:00:00 15.4 24 Noroeste 41 Oeste 0 -- -- 36
2019-04-11 16:00:00 15.3 22 Noroeste 44 Noroeste 0 -- -- 37
2019-04-11 15:00:00 14.4 26 Noroeste 40 Oeste 0 -- -- 40
2019-04-11 14:00:00 13.3 24 Noroeste 43 Oeste 0 -- -- 49
2019-04-11 13:00:00 11.7 28 Noroeste 40 Noroeste 0 -- -- 50
2019-04-11 12:00:00 9.9 26 Oeste 38 Noroeste 0 -- -- 64
2019-04-11 11:00:00 8.6 23 Noroeste 33 Noroeste 0 -- -- 72
2019-04-11 10:00:00 6.5 26 Noroeste 36 Oeste 0 -- -- 79
2019-04-11 09:00:00 4.9 24 Noroeste 31 Noroeste 0 -- -- 87
2019-04-11 08:00:00 2.8 14 Noroeste 20 Noroeste 0 -- -- 94
2019-04-11 07:00:00 3.1 13 Noroeste 18 Noroeste 0 -- -- 93
2019-04-11 06:00:00 3.4 13 Noroeste 18 Noroeste 0 -- -- 92
2019-04-11 05:00:00 3.6 9 Noroeste 15 Noroeste 0 -- -- 91
2019-04-11 04:00:00 3.8 11 Noroeste 15 Norte 0 -- -- 93
2019-04-11 03:00:00 1.2 4 Noroeste 8 Noroeste 0 -- -- 94
2019-04-11 02:00:00 2.2 3 Sudeste 6 Sudeste 0 -- -- 92
2019-04-11 01:00:00 3.2 4 Sudeste 5 Sudeste 0 -- -- 91
2019-04-11 00:00:00 4 2 Sudeste 6 Sudeste 0 -- -- 87
2019-04-10 23:00:00 5 5 Sudeste 7 Sudeste 0 -- -- 82
2019-04-10 22:00:00 6.9 3 Sudeste 8 Noroeste 0 -- -- 75
2019-04-10 21:00:00 9 0 Calma 8 Oeste 0 -- -- 68
2019-04-10 20:00:00 12.2 6 Oeste 21 Oeste 0 -- -- 52
2019-04-10 19:00:00 13.2 16 Noroeste 31 Noroeste 0 -- -- 45
2019-04-10 18:00:00 13.9 21 Noroeste 30 Oeste 0 -- -- 51
2019-04-10 17:00:00 14.2 19 Oeste 30 Noroeste 0 -- -- 49
2019-04-10 16:00:00 13.8 17 Noroeste 27 Oeste 0 -- -- 49
2019-04-10 15:00:00 13.8 17 Oeste 32 Oeste 0 -- -- 56
2019-04-10 14:00:00 12 21 Noroeste 32 Noroeste 0 -- -- 63
2019-04-10 13:00:00 11.1 19 Oeste 32 Oeste 0 -- -- 73
2019-04-10 12:00:00 9.2 20 Noroeste 33 Oeste 0 -- -- 79
2019-04-10 11:00:00 8 15 Noroeste 27 Oeste 0 -- -- 85
2019-04-10 10:00:00 6.3 20 Noroeste 31 Noroeste 0 -- -- 91
2019-04-10 09:00:00 5.1 22 Noroeste 29 Noroeste 0 -- -- 96
2019-04-10 08:00:00 5.1 20 Noroeste 30 Noroeste 0 -- -- 98
2019-04-10 07:00:00 5.2 21 Noroeste 30 Oeste 0 -- -- 99
2019-04-10 06:00:00 5.4 18 Noroeste 26 Noroeste 0 -- -- 97
2019-04-10 05:00:00 5.6 16 Noroeste 24 Noroeste 0 -- -- 96
2019-04-10 04:00:00 5.5 13 Noroeste 21 Noroeste 0 -- -- 96
2019-04-10 03:00:00 5.8 13 Noroeste 20 Noroeste 0 -- -- 97
2019-04-10 02:00:00 3.9 0 Calma 4 Noroeste 0 -- -- 99
2019-04-10 01:00:00 4.3 3 Noroeste 5 Norte 0 -- -- 97
2019-04-10 00:00:00 5.1 4 Norte 14 Sudoeste 0 -- -- 96
2019-04-09 23:00:00 6.5 3 Nordeste 14 Sur 1 -- -- 93
2019-04-09 22:00:00 7.5 7 Noroeste 13 Noroeste 0.8 -- -- 85
2019-04-09 21:00:00 8.1 9 Sudeste 24 Sudeste 0 -- -- 73
2019-04-09 20:00:00 9.3 17 Sudeste 29 Sudeste 0 -- -- 69
2019-04-09 19:00:00 12 17 Este 33 Este 0 -- -- 59
2019-04-09 18:00:00 14.6 17 Noroeste 36 Oeste 0 -- -- 42
2019-04-09 17:00:00 15 21 Noroeste 43 Noroeste 0 -- -- 42
2019-04-09 16:00:00 14.5 31 Noroeste 45 Noroeste 0 -- -- 42
2019-04-09 15:00:00 13.9 32 Noroeste 43 Oeste 0 -- -- 44
2019-04-09 14:00:00 13.1 30 Noroeste 46 Oeste 0 -- -- 55
2019-04-09 13:00:00 12 26 Noroeste 44 Noroeste 0 -- -- 61
2019-04-09 12:00:00 10.4 31 Noroeste 43 Noroeste 0 -- -- 72
2019-04-09 11:00:00 9.3 24 Noroeste 35 Oeste 0 -- -- 74
2019-04-09 10:00:00 8.2 22 Noroeste 36 Oeste 0 -- -- 81
2019-04-09 09:00:00 8 17 Noroeste 27 Oeste 0 -- -- 80
2019-04-09 08:00:00 5.8 10 Noroeste 34 Noroeste 0 -- -- 94
2019-04-09 07:00:00 6.5 17 Noroeste 26 Noroeste 0 -- -- 94
2019-04-09 06:00:00 4.2 14 Noroeste 20 Noroeste 0 -- -- 100
2019-04-09 05:00:00 1.9 2 Noroeste 8 Sudeste 0 -- -- 97
2019-04-09 04:00:00 2.1 0 Calma 6 Sudeste 0 -- -- 95
2019-04-09 03:00:00 2.4 3 Este 6 Sudeste 0 -- -- 95
2019-04-09 02:00:00 3.2 4 Sudeste 7 Sudeste 0 -- -- 95
2019-04-09 01:00:00 4.8 7 Sudeste 10 Sudeste 0 -- -- 92
2019-04-09 00:00:00 6.6 4 Este 8 Sudeste 0 -- -- 87
2019-04-08 23:00:00 8.9 2 Norte 20 Noroeste 0 -- -- 80
2019-04-08 22:00:00 7 6 Sur 28 Noroeste 0 -- -- 87
2019-04-08 21:00:00 8.6 2 Sudeste 9 Oeste 0 -- -- 79
2019-04-08 20:00:00 13.3 5 Oeste 22 Oeste 0 -- -- 62
2019-04-08 19:00:00 14.7 16 Oeste 31 Noroeste 0 -- -- 57
2019-04-08 18:00:00 14.9 22 Noroeste 41 Noroeste 0 -- -- 58
2019-04-08 17:00:00 14.4 30 Noroeste 43 Noroeste 0 -- -- 60
2019-04-08 16:00:00 13.7 26 Noroeste 41 Oeste 0 -- -- 64
2019-04-08 15:00:00 12.1 24 Noroeste 38 Noroeste 0 -- -- 71
2019-04-08 14:00:00 12.2 27 Noroeste 41 Noroeste 0 -- -- 68
2019-04-08 13:00:00 11.1 26 Noroeste 39 Noroeste 0 -- -- 71
2019-04-08 12:00:00 10.8 21 Noroeste 31 Oeste 0 -- -- 70
2019-04-08 11:00:00 9.9 18 Noroeste 26 Noroeste 0 -- -- 69
2019-04-08 10:00:00 8.3 13 Noroeste 18 Noroeste 0 -- -- 73
2019-04-08 09:00:00 6.2 6 Noroeste 10 Noroeste 0 -- -- 88
2019-04-08 08:00:00 3.9 5 Noroeste 8 Noroeste 0 -- -- 91
2019-04-08 07:00:00 3.4 0 Calma 9 Norte 0 -- -- 94
2019-04-08 06:00:00 2.1 3 Norte 9 Sudeste 0 -- -- 100
2019-04-08 05:00:00 0.3 6 Sudeste 9 Sudeste 0 -- -- 99
2019-04-08 04:00:00 0.5 5 Sudeste 7 Sudeste 0 -- -- 99
2019-04-08 03:00:00 0.2 4 Sudeste 8 Sudeste 0 -- -- 99
2019-04-08 02:00:00 -0.7 5 Sudeste 6 Sudeste 0 -- -- 98
2019-04-08 01:00:00 0.4 5 Sudeste 8 Sudeste 0 -- -- 96
2019-04-08 00:00:00 2.1 6 Sudeste 17 Sudoeste 0 -- -- 92
2019-04-07 23:00:00 6.6 9 Sudoeste 20 Sudoeste 0 -- -- 75
2019-04-07 22:00:00 4.2 3 Este 8 Este 0 -- -- 94
2019-04-07 21:00:00 6.7 7 Este 11 Sudeste 0.2 -- -- 90
2019-04-07 20:00:00 7.5 8 Este 22 Sudeste 0 -- -- 82
2019-04-07 19:00:00 8.1 11 Sudeste 27 Sudeste 0 -- -- 76
2019-04-07 18:00:00 11.1 4 Oeste 27 Noroeste 0 -- -- 56
2019-04-07 17:00:00 12.5 20 Noroeste 37 Noroeste 0 -- -- 48
2019-04-07 16:00:00 12.6 22 Noroeste 39 Noroeste 0 -- -- 53
2019-04-07 15:00:00 12.2 22 Noroeste 41 Noroeste 0 -- -- 55
2019-04-07 14:00:00 10.9 26 Noroeste 43 Noroeste 0 -- -- 65
2019-04-07 13:00:00 9.4 30 Oeste 43 Noroeste 0 -- -- 70
2019-04-07 12:00:00 7.7 29 Noroeste 45 Noroeste 0 -- -- 78
2019-04-07 11:00:00 5.8 29 Noroeste 44 Oeste 0 -- -- 88
2019-04-07 10:00:00 4.7 26 Noroeste 41 Oeste 0 -- -- 98
2019-04-07 09:00:00 3.9 21 Noroeste 29 Noroeste 0 -- -- 100
2019-04-07 08:00:00 3.5 14 Noroeste 22 Oeste 0 -- -- 99
2019-04-07 07:00:00 2.7 16 Noroeste 24 Noroeste 0 -- -- 100
2019-04-07 06:00:00 -0.2 0 Calma 4 Sudeste 0 -- -- 99
2019-04-07 05:00:00 -1.2 4 Sudeste 7 Sudeste 0 -- -- 99
2019-04-07 04:00:00 -1.6 5 Sudeste 8 Sudeste 0 -- -- 98
2019-04-07 03:00:00 -0.7 2 Sudeste 6 Sudeste 0 -- -- 97
2019-04-07 02:00:00 1.5 2 Noroeste 5 Norte 0 -- -- 95
2019-04-07 01:00:00 3.5 0 Calma 5 Norte 0 -- -- 95
2019-04-07 00:00:00 4.7 2 Noroeste 17 Noroeste 0 -- -- 91
2019-04-06 23:00:00 5.9 12 Noroeste 26 Oeste 0 -- -- 83
2019-04-06 22:00:00 6.9 7 Sur 21 Sudeste 0 -- -- 71
2019-04-06 21:00:00 6.7 6 Sur 13 Sur 0 -- -- 77
2019-04-06 20:00:00 8.1 8 Sur 20 Sur 0 -- -- 62
2019-04-06 19:00:00 9.9 10 Sur 21 Noroeste 0 -- -- 59
2019-04-06 18:00:00 10.4 9 Oeste 23 Oeste 0 -- -- 56
2019-04-06 17:00:00 10.1 14 Noroeste 28 Oeste 0 -- -- 59
2019-04-06 16:00:00 10.5 16 Noroeste 36 Noroeste 0 -- -- 58
2019-04-06 15:00:00 9.8 24 Noroeste 37 Oeste 0 -- -- 63
2019-04-06 14:00:00 9.2 24 Noroeste 42 Noroeste 0 -- -- 64
2019-04-06 13:00:00 7.2 28 Noroeste 39 Noroeste 0 -- -- 72
2019-04-06 12:00:00 6.5 23 Noroeste 37 Noroeste 0 -- -- 77
2019-04-06 11:00:00 6.2 13 Oeste 27 Noroeste 0 -- -- 82
2019-04-06 10:00:00 4.5 13 Oeste 25 Oeste 0 -- -- 89
2019-04-06 09:00:00 3.8 15 Noroeste 27 Noroeste 0 -- -- 94
2019-04-06 08:00:00 3.3 19 Noroeste 31 Oeste 0 -- -- 96
2019-04-06 07:00:00 3.5 14 Noroeste 34 Oeste 0 -- -- 96
2019-04-06 06:00:00 3.3 15 Noroeste 31 Noroeste 0 -- -- 97
2019-04-06 05:00:00 3.4 16 Noroeste 32 Oeste 0.2 -- -- 97
2019-04-06 04:00:00 3.8 24 Oeste 32 Oeste 0 -- -- 95
2019-04-06 03:00:00 5 14 Noroeste 31 Oeste 0 -- -- 95
2019-04-06 02:00:00 -- -- -- -- -- 0.4 -- -- --
2019-04-06 01:00:00 5.9 4 Sudeste 10 Este 1.4 -- -- 98
2019-04-06 00:00:00 6.1 5 Sur 15 Sudoeste 1.4 -- -- 94
2019-04-05 23:00:00 6.2 8 Sudeste 24 Noroeste 0.8 -- -- 92
2019-04-05 22:00:00 7 0 Calma 15 Noroeste 0.8 -- -- 94
2019-04-05 21:00:00 7.6 4 Sudeste 32 Sudeste 1.8 -- -- 91
2019-04-05 20:00:00 9.1 13 Sudeste 31 Sur 0 -- -- 83
2019-04-05 19:00:00 9.5 21 Sudeste 40 Sudeste 0 -- -- 73
2019-04-05 18:00:00 10.1 22 Sudeste 39 Sudeste 0 -- -- 69
2019-04-05 17:00:00 10.9 18 Sudeste 34 Sudeste 0 -- -- 68
2019-04-05 16:00:00 11.1 14 Sur 28 Sur 0 -- -- 71
2019-04-05 15:00:00 11.1 15 Sur 28 Sudeste 0.2 -- -- 74
2019-04-05 14:00:00 9 4 Sur 23 Sudeste 0.2 -- -- 86
2019-04-05 13:00:00 9.1 3 Oeste 14 Oeste 0.2 -- -- 87
2019-04-05 12:00:00 9.4 9 Sudoeste 19 Sur 0 -- -- 85
2019-04-05 11:00:00 8 10 Sur 24 Sur 1.2 -- -- 90
2019-04-05 10:00:00 8.1 9 Sur 26 Sudeste 0 -- -- 91
2019-04-05 09:00:00 7.5 13 Sudeste 23 Sudeste 0 -- -- 90
2019-04-05 08:00:00 6.8 9 Sur 24 Sur 0 -- -- 90
2019-04-05 07:00:00 5.8 11 Sur 21 Sur 0 -- -- 91
2019-04-05 06:00:00 5.2 8 Sudeste 18 Sur 0 -- -- 90
2019-04-05 05:00:00 4.3 5 Sudeste 17 Sur 0 -- -- 80
2019-04-05 04:00:00 3.8 8 Sur 13 Sur 0 -- -- 72
2019-04-05 03:00:00 -1.9 7 Sudeste 14 Sudeste 0 -- -- 90
2019-04-05 02:00:00 -2.3 11 Sudeste 14 Sudeste 0 -- -- 91
2019-04-05 01:00:00 -2.2 8 Sudeste 13 Sudeste 0 -- -- 90
2019-04-05 00:00:00 -2.3 9 Sudeste 16 Sudeste 0 -- -- 86
2019-04-04 23:00:00 -2 9 Sudeste 13 Sudeste 0 -- -- 80
2019-04-04 22:00:00 -0.9 6 Sudeste 9 Sudeste 0 -- -- 75
2019-04-04 21:00:00 2.9 5 Sudeste 8 Sudeste 0 -- -- 63
2019-04-04 20:00:00 9 6 Oeste 19 Noroeste 0 -- -- 43
2019-04-04 19:00:00 10.5 13 Oeste 39 Oeste 0 -- -- 36
2019-04-04 18:00:00 10.5 24 Noroeste 38 Noroeste 0 -- -- 34
2019-04-04 17:00:00 10.6 20 Noroeste 37 Oeste 0 -- -- 32
2019-04-04 16:00:00 10.3 20 Noroeste 40 Oeste 0 -- -- 41
2019-04-04 15:00:00 9.6 23 Oeste 44 Noroeste 0 -- -- 43
2019-04-04 14:00:00 8.7 25 Noroeste 44 Noroeste 0 -- -- 50
2019-04-04 13:00:00 6.9 31 Noroeste 45 Noroeste 0 -- -- 53
2019-04-04 12:00:00 5.3 25 Noroeste 37 Noroeste 0 -- -- 64
2019-04-04 11:00:00 3.4 23 Noroeste 33 Noroeste 0 -- -- 70
2019-04-04 10:00:00 2 25 Noroeste 41 Noroeste 0 -- -- 75
2019-04-04 09:00:00 0.7 28 Noroeste 38 Noroeste 0 -- -- 81
2019-04-04 08:00:00 -0.6 15 Noroeste 28 Noroeste 0 -- -- 83
2019-04-04 07:00:00 -0.5 13 Noroeste 26 Noroeste 0 -- -- 80
2019-04-04 06:00:00 0.1 17 Noroeste 31 Noroeste 0 -- -- 76
2019-04-04 05:00:00 0.6 13 Noroeste 29 Noroeste 0 -- -- 75
2019-04-04 04:00:00 1.4 14 Noroeste 33 Noroeste 0 -- -- 72
2019-04-04 03:00:00 2.1 18 Oeste 28 Noroeste 0 -- -- 70
2019-04-04 02:00:00 2.6 18 Noroeste 35 Oeste 0 -- -- 72
2019-04-04 01:00:00 3.5 23 Noroeste 38 Noroeste 0 -- -- 70
2019-04-04 00:00:00 3.8 27 Noroeste 44 Oeste 0 -- -- 73
2019-04-03 23:00:00 4 18 Noroeste 46 Noroeste 0 -- -- 76
2019-04-03 22:00:00 4.9 22 Oeste 42 Noroeste 0 -- -- 82
2019-04-03 21:00:00 5.7 17 Noroeste 28 Oeste 0 -- -- 74
2019-04-03 20:00:00 6 14 Noroeste 31 Noroeste 0 -- -- 78
2019-04-03 19:00:00 6.3 22 Noroeste 35 Noroeste 0 -- -- 81
2019-04-03 18:00:00 7.1 22 Noroeste 37 Oeste 0 -- -- 83
2019-04-03 17:00:00 7.8 20 Noroeste 31 Oeste 1 -- -- 84
2019-04-03 16:00:00 9.6 20 Noroeste 33 Noroeste 0 -- -- 68
2019-04-03 15:00:00 10.9 18 Noroeste 30 Noroeste 0 -- -- 67
2019-04-03 14:00:00 10.4 13 Noroeste 25 Oeste 0 -- -- 71
2019-04-03 13:00:00 9.8 12 Noroeste 19 Noroeste 0 -- -- 78
2019-04-03 12:00:00 10 8 Noroeste 17 Noroeste 0 -- -- 81
2019-04-03 11:00:00 9.5 10 Noroeste 15 Noroeste 0 -- -- 88
2019-04-03 10:00:00 10.3 8 Oeste 15 Sur 0 -- -- 83
2019-04-03 09:00:00 10 9 Sudoeste 20 Sudoeste 0 -- -- 87
2019-04-03 08:00:00 8.7 7 Sur 18 Sur 0 -- -- 95
2019-04-03 07:00:00 8.4 8 Sur 18 Sur 0 -- -- 97
2019-04-03 06:00:00 8.4 6 Sudoeste 12 Este 0 -- -- 98
2019-04-03 05:00:00 7.8 9 Sudeste 13 Sudeste 0 -- -- 99
2019-04-03 04:00:00 8 8 Sudeste 13 Este 0 -- -- 100
2019-04-03 03:00:00 4.9 4 Este 11 Sudeste 0 -- -- 100
2019-04-03 02:00:00 3.3 8 Sudeste 10 Sudeste 0 -- -- 98
2019-04-03 01:00:00 3.2 8 Sudeste 9 Sudeste 0 -- -- 97
2019-04-03 00:00:00 4.8 8 Sudeste 13 Sudeste 0 -- -- 96
2019-04-02 23:00:00 5.9 7 Sudeste 11 Este 0 -- -- 94
2019-04-02 22:00:00 7.7 8 Este 15 Sur 0 -- -- 91
2019-04-02 21:00:00 11 10 Sur 20 Sur 0 -- -- 85
2019-04-02 20:00:00 13.1 11 Sudoeste 21 Oeste 0 -- -- 71
2019-04-02 19:00:00 15.8 13 Oeste 30 Noroeste 0 -- -- 44
2019-04-02 18:00:00 16.1 15 Noroeste 32 Noroeste 0 -- -- 43
2019-04-02 17:00:00 16.2 22 Noroeste 33 Noroeste 0 -- -- 52
2019-04-02 16:00:00 16.6 18 Noroeste 34 Noroeste 0 -- -- 48
2019-04-02 15:00:00 16.4 16 Noroeste 27 Noroeste 0 -- -- 50
2019-04-02 14:00:00 15.9 17 Oeste 28 Noroeste 0 -- -- 55
2019-04-02 13:00:00 14 16 Noroeste 24 Noroeste 0 -- -- 60
2019-04-02 12:00:00 12.4 13 Noroeste 22 Noroeste 0 -- -- 62
2019-04-02 11:00:00 12.2 12 Noroeste 17 Noroeste 0 -- -- 59
2019-04-02 10:00:00 11.2 12 Noroeste 17 Noroeste 0 -- -- 61
2019-04-02 09:00:00 4.3 4 Sudeste 7 Sudeste 0 -- -- 90
2019-04-02 08:00:00 0.9 5 Sudeste 8 Sudeste 0 -- -- 94
2019-04-02 07:00:00 1.7 7 Sudeste 8 Sudeste 0 -- -- 90
2019-04-02 06:00:00 4.3 4 Sudeste 5 Sudeste 0 -- -- 85
2019-04-02 05:00:00 4.6 3 Sudeste 7 Sudeste 0 -- -- 84
2019-04-02 04:00:00 4 3 Sudeste 7 Sudeste 0 -- -- 84
2019-04-02 03:00:00 3 6 Sudeste 8 Sudeste 0 -- -- 86
2019-04-02 02:00:00 3 4 Sudeste 6 Sudeste 0 -- -- 85
2019-04-02 01:00:00 5 4 Sudeste 5 Sudeste 0 -- -- 80
2019-04-02 00:00:00 4.7 3 Este 8 Sudeste 0 -- -- 81
2019-04-01 23:00:00 3.8 3 Sudeste 6 Sudeste 0 -- -- 82
2019-04-01 22:00:00 5.4 4 Sudeste 6 Sudeste 0 -- -- 75
2019-04-01 21:00:00 8.4 3 Este 13 Sudoeste 0 -- -- 65
2019-04-01 20:00:00 11.3 8 Sudoeste 16 Sudoeste 0 -- -- 53
2019-04-01 19:00:00 13.8 11 Sudoeste 22 Sudoeste 0 -- -- 47
2019-04-01 18:00:00 14.7 9 Noroeste 24 Noroeste 0 -- -- 56
2019-04-01 17:00:00 15.2 15 Noroeste 25 Noroeste 0 -- -- 53
2019-04-01 16:00:00 16.3 14 Noroeste 26 Oeste 0 -- -- 50
2019-04-01 15:00:00 15.8 12 Noroeste 23 Oeste 0 -- -- 52
2019-04-01 14:00:00 15.6 14 Noroeste 23 Noroeste 0 -- -- 50
2019-04-01 13:00:00 15.7 6 Sur 13 Sudeste 0 -- -- 46
2019-04-01 12:00:00 13 5 Oeste 14 Oeste 0 -- -- 54
2019-04-01 11:00:00 10.3 9 Oeste 13 Oeste 0 -- -- 74
2019-04-01 10:00:00 8.4 9 Noroeste 11 Noroeste 0 -- -- 85
2019-04-01 09:00:00 6.2 2 Este 7 Sudeste 0 -- -- 80
2019-04-01 08:00:00 4.3 3 Sudeste 5 Sudeste 0 -- -- 86
2019-04-01 07:00:00 4.2 2 Sudeste 8 Sudeste 0 -- -- 84
2019-04-01 06:00:00 4.5 0 Calma 5 Sudeste 0 -- -- 83
2019-04-01 05:00:00 5.2 5 Sudeste 6 Sudeste 0 -- -- 80
2019-04-01 04:00:00 5.8 0 Calma 4 Norte 0 -- -- 77
2019-04-01 03:00:00 6.5 0 Calma 8 Sudeste 0 -- -- 72
2019-04-01 02:00:00 6.6 6 Sudeste 8 Sudeste 0 -- -- 71
2019-04-01 01:00:00 7.7 5 Sudeste 9 Sudeste 0 -- -- 61
2019-04-01 00:00:00 7.4 3 Sudeste 10 Sudeste 0 -- -- 58
2019-03-31 23:00:00 8 3 Este 8 Este 0 -- -- 58
2019-03-31 22:00:00 8.1 2 Nordeste 7 Este 0 -- -- 67
2019-03-31 21:00:00 9.5 4 Este 17 Sudeste 0 -- -- 66
2019-03-31 20:00:00 11.2 10 Sudeste 21 Sudeste 0 -- -- 62
2019-03-31 19:00:00 12.2 13 Sudeste 23 Sudeste 0 -- -- 63
2019-03-31 18:00:00 12.9 15 Sudeste 24 Sudeste 0 -- -- 59
2019-03-31 17:00:00 13.9 15 Sudeste 28 Sudeste 0 -- -- 57
2019-03-31 16:00:00 14.8 13 Sudeste 27 Sudeste 0 -- -- 59
2019-03-31 15:00:00 12.7 10 Sudeste 24 Este 0 -- -- 69
2019-03-31 14:00:00 10.8 14 Sudeste 25 Sudeste 0 -- -- 77
2019-03-31 13:00:00 9.1 14 Este 24 Sudeste 0 -- -- 81
2019-03-31 12:00:00 8.5 16 Sudeste 26 Sudeste 0 -- -- 86
2019-03-31 11:00:00 8.3 14 Sudeste 26 Sudeste 0 -- -- 86
2019-03-31 10:00:00 8.1 10 Sudeste 19 Sudeste 0 -- -- 88
2019-03-31 09:00:00 6.4 9 Sudeste 18 Sudeste 0 -- -- 99
2019-03-31 08:00:00 4.9 13 Sudeste 18 Sudeste 0 -- -- 100
2019-03-31 07:00:00 -0.5 9 Sudeste 14 Sudeste 0 -- -- 100
2019-03-31 06:00:00 -1.1 9 Sudeste 13 Sudeste 0 -- -- 99
2019-03-31 05:00:00 -1.3 12 Sudeste 14 Sudeste 0 -- -- 99
2019-03-31 03:00:00 0.3 4 Sudeste 9 Sudeste 0 -- -- 96
2019-03-31 01:00:00 2.3 6 Sudeste 13 Sudeste 0 -- -- 95
2019-03-31 00:00:00 4.5 9 Sudeste 16 Sudeste 0 -- -- 96
2019-03-30 23:00:00 4.9 15 Sudeste 21 Este 0 -- -- 91
2019-03-30 22:00:00 6.1 11 Sudeste 18 Sudeste 0 -- -- 88
2019-03-30 21:00:00 6 11 Sudeste 19 Sudeste 0 -- -- 87
2019-03-30 20:00:00 7 9 Sudeste 23 Sudeste 0 -- -- 83
2019-03-30 19:00:00 9.4 13 Sudeste 24 Sur 0 -- -- 74
2019-03-30 18:00:00 11.6 16 Sudeste 26 Sur 0 -- -- 62
2019-03-30 17:00:00 13.4 14 Sur 30 Sudeste 0 -- -- 55
2019-03-30 16:00:00 14 14 Sudeste 31 Sudeste 0 -- -- 48
2019-03-30 15:00:00 14.7 15 Sudeste 28 Sudeste 0 -- -- 43
2019-03-30 14:00:00 14.3 9 Sudeste 27 Sudeste 0 -- -- 45
2019-03-30 13:00:00 14.1 9 Sudeste 32 Este 0 -- -- 49
2019-03-30 12:00:00 13.2 10 Sudeste 22 Sudeste 0 -- -- 51
2019-03-30 11:00:00 12 12 Sudeste 21 Sudeste 0 -- -- 54
2019-03-30 10:00:00 10.2 13 Sudeste 23 Sudeste 0 -- -- 64
2019-03-30 09:00:00 8.5 11 Sudeste 17 Sudeste 0 -- -- 68
2019-03-30 08:00:00 0.2 6 Sudeste 11 Sudeste 0 -- -- 98
2019-03-30 07:00:00 -3.1 8 Sudeste 10 Sudeste 0 -- -- 97
2019-03-30 06:00:00 -2.5 6 Sudeste 10 Sudeste 0 -- -- 98
2019-03-30 05:00:00 -2.4 9 Sudeste 12 Sudeste 0 -- -- 97
2019-03-30 04:00:00 -1.7 6 Sudeste 13 Sudeste 0 -- -- 97
2019-03-30 03:00:00 -2.7 9 Sudeste 12 Sudeste 0 -- -- 96
2019-03-30 02:00:00 -2.2 5 Sudeste 7 Sudeste 0 -- -- 94
2019-03-30 01:00:00 -1.1 7 Sudeste 9 Sudeste 0 -- -- 92
2019-03-30 00:00:00 0 5 Sudeste 10 Este 0 -- -- 88
2019-03-29 23:00:00 0.2 4 Este 8 Sudeste 0 -- -- 84
2019-03-29 22:00:00 2.4 4 Sudeste 13 Este 0 -- -- 77
2019-03-29 21:00:00 5.3 6 Sudeste 14 Sudeste 0 -- -- 67
2019-03-29 20:00:00 7.6 9 Sudeste 22 Sur 0 -- -- 60
2019-03-29 19:00:00 9.8 10 Sur 21 Sudeste 0 -- -- 59
2019-03-29 18:00:00 12 10 Sur 25 Sudeste 0 -- -- 51
2019-03-29 17:00:00 13 12 Sur 29 Sudeste 0 -- -- 47
2019-03-29 16:00:00 13.6 10 Sudeste 33 Sudeste 0 -- -- 46
2019-03-29 15:00:00 13.7 14 Sudeste 25 Oeste 0 -- -- 48
2019-03-29 14:00:00 13.1 13 Sur 27 Sudeste 0 -- -- 48
2019-03-29 13:00:00 13.9 6 Sudeste 24 Sudeste 0 -- -- 41
2019-03-29 12:00:00 13.5 10 Sur 27 Sudeste 0 -- -- 40
2019-03-29 11:00:00 13.9 10 Sudeste 22 Sudeste 0 -- -- 43
2019-03-29 10:00:00 12.6 16 Sudeste 25 Sudeste 0 -- -- 44
2019-03-29 09:00:00 10 4 Sudeste 8 Sudeste 0 -- -- 50
2019-03-29 08:00:00 2 4 Este 9 Sudeste 0 -- -- 83
2019-03-29 07:00:00 -1.2 5 Sudeste 8 Sudeste 0 -- -- 90
2019-03-29 06:00:00 1.2 5 Sudeste 8 Sudeste 0 -- -- 85
2019-03-29 05:00:00 3.7 0 Calma 8 Sudeste 0 -- -- 79
2019-03-29 04:00:00 3.9 4 Sudeste 10 Nordeste 0 -- -- 74
2019-03-29 03:00:00 3.2 7 Sudeste 15 Sudeste 0 -- -- 75
2019-03-29 02:00:00 0.8 13 Sudeste 17 Sudeste 0 -- -- 92
2019-03-29 01:00:00 0.9 9 Sudeste 14 Sudeste 0 -- -- 92
2019-03-29 00:00:00 2.5 7 Sudeste 12 Este 0 -- -- 85
2019-03-28 23:00:00 4.4 9 Sudeste 16 Sudeste 0 -- -- 81
2019-03-28 22:00:00 4.9 9 Sudeste 18 Sudeste 0 -- -- 76
2019-03-28 21:00:00 6.6 11 Sudeste 18 Sudeste 0 -- -- 66
2019-03-28 20:00:00 8 10 Sudeste 22 Sudeste 0 -- -- 56
2019-03-28 19:00:00 9.8 13 Sur 30 Sudoeste 0 -- -- 48
2019-03-28 18:00:00 12.3 12 Sur 26 Sur 0 -- -- 39
2019-03-28 17:00:00 13.8 14 Sur 26 Sur 0 -- -- 38
2019-03-28 16:00:00 14.8 15 Sur 27 Sur 0 -- -- 35
2019-03-28 15:00:00 15.5 12 Noroeste 23 Noroeste 0 -- -- 39
2019-03-28 14:00:00 14.9 13 Noroeste 24 Oeste 0 -- -- 45
2019-03-28 13:00:00 14.1 11 Noroeste 20 Noroeste 0 -- -- 44
2019-03-28 12:00:00 13.5 10 Noroeste 24 Sur 0 -- -- 43
2019-03-28 11:00:00 12.5 9 Sudoeste 22 Sudeste 0 -- -- 38
2019-03-28 10:00:00 9.9 10 Noroeste 17 Oeste 0 -- -- 55
2019-03-28 09:00:00 7.3 5 Noroeste 10 Noroeste 0 -- -- 66
2019-03-28 08:00:00 -0.4 6 Sudeste 9 Sudeste 0 -- -- 92
2019-03-28 07:00:00 -3.9 4 Sudeste 7 Sudeste 0 -- -- 95
2019-03-28 06:00:00 -3.4 4 Sudeste 9 Sudeste 0 -- -- 95
2019-03-28 05:00:00 -2.9 6 Sudeste 9 Sudeste 0 -- -- 96
2019-03-28 04:00:00 -2.3 6 Sudeste 10 Sudeste 0 -- -- 96
2019-03-28 03:00:00 -0.9 9 Sudeste 15 Sudeste 0 -- -- 97
2019-03-28 02:00:00 -0.1 13 Sudeste 15 Sudeste 0 -- -- 97
2019-03-28 01:00:00 1 11 Sudeste 15 Sudeste 0 -- -- 95
2019-03-28 00:00:00 3.2 9 Sudeste 21 Este 0 -- -- 88
2019-03-27 23:00:00 5.3 15 Este 22 Este 0 -- -- 87
2019-03-27 22:00:00 3.3 11 Sudeste 15 Sudeste 0 -- -- 86
2019-03-27 21:00:00 4.9 10 Sudeste 17 Este 0 -- -- 79
2019-03-27 20:00:00 7.6 10 Sudeste 18 Sudeste 0 -- -- 72
2019-03-27 19:00:00 10 10 Sur 26 Sudoeste 0 -- -- 51
2019-03-27 18:00:00 12.9 12 Sur 24 Sudoeste 0 -- -- 42
2019-03-27 17:00:00 15.7 10 Noroeste 18 Oeste 0 -- -- 28
2019-03-27 16:00:00 15.6 7 Norte 21 Noroeste 0 -- -- 28
2019-03-27 15:00:00 15.4 12 Noroeste 24 Noroeste 0 -- -- 28
2019-03-27 14:00:00 14.4 9 Oeste 26 Oeste 0 -- -- 30
2019-03-27 13:00:00 12.7 18 Noroeste 28 Noroeste 0 -- -- 33
2019-03-27 12:00:00 11.8 14 Noroeste 23 Noroeste 0 -- -- 42
2019-03-27 11:00:00 10.7 15 Noroeste 24 Oeste 0 -- -- 48
2019-03-27 10:00:00 9.3 14 Noroeste 22 Noroeste 0 -- -- 49
2019-03-27 09:00:00 6.2 10 Noroeste 14 Noroeste 0 -- -- 67
2019-03-27 08:00:00 -1.6 5 Sudeste 9 Sudeste 0 -- -- 95
2019-03-27 07:00:00 -5.2 5 Sudeste 9 Sudeste 0 -- -- 95
2019-03-27 06:00:00 -5 6 Sudeste 9 Sudeste 0 -- -- 95
2019-03-27 05:00:00 -4.6 6 Sudeste 9 Sudeste 0 -- -- 95
2019-03-27 04:00:00 -3.8 4 Sudeste 6 Este 0 -- -- 95
2019-03-27 03:00:00 -2.9 5 Sudeste 10 Sudeste 0 -- -- 96
2019-03-27 02:00:00 -2.1 6 Sudeste 8 Sudeste 0 -- -- 91
2019-03-27 01:00:00 0.8 3 Sudeste 13 Este 0 -- -- 89
2019-03-27 00:00:00 3.5 5 Sudeste 19 Este 0 -- -- 80
2019-03-26 23:00:00 4.2 9 Sudeste 18 Sudeste 0 -- -- 80
2019-03-26 22:00:00 5.4 11 Sudeste 21 Sudeste 0 -- -- 76
2019-03-26 21:00:00 5.9 13 Sudeste 26 Sudoeste 0 -- -- 71
2019-03-26 20:00:00 6.9 14 Sur 34 Sur 0 -- -- 68
2019-03-26 19:00:00 8.4 17 Sur 33 Sur 0 -- -- 63
2019-03-26 18:00:00 10.9 17 Sudoeste 32 Sur 0 -- -- 53
2019-03-26 17:00:00 13.2 15 Sur 33 Oeste 0 -- -- 44
2019-03-26 16:00:00 15.4 17 Noroeste 27 Noroeste 0 -- -- 31
2019-03-26 15:00:00 14.8 14 Oeste 26 Noroeste 0 -- -- 31
2019-03-26 14:00:00 14.1 14 Oeste 26 Noroeste 0 -- -- 36
2019-03-26 13:00:00 12.5 18 Oeste 31 Noroeste 0 -- -- 42
2019-03-26 12:00:00 10.5 23 Noroeste 33 Noroeste 0 -- -- 50
2019-03-26 11:00:00 9 21 Noroeste 30 Noroeste 0 -- -- 61
2019-03-26 10:00:00 7.8 18 Noroeste 33 Noroeste 0 -- -- 66
2019-03-26 09:00:00 5.9 19 Noroeste 26 Noroeste 0 -- -- 74
2019-03-26 08:00:00 -0.4 3 Sudeste 8 Sudeste 0 -- -- 93
2019-03-26 07:00:00 -3 6 Sudeste 10 Sudeste 0 -- -- 95
2019-03-26 06:00:00 -1.7 3 Este 6 Sudeste 0 -- -- 94
2019-03-26 05:00:00 -0.2 3 Noroeste 10 Noroeste 0 -- -- 91
2019-03-26 04:00:00 2.1 5 Norte 15 Noroeste 0 -- -- 88
2019-03-26 03:00:00 3.4 10 Noroeste 20 Noroeste 0 -- -- 81
2019-03-26 02:00:00 4.3 11 Oeste 19 Noroeste 0 -- -- 77
2019-03-26 01:00:00 5.4 9 Noroeste 18 Noroeste 0 -- -- 70
2019-03-26 00:00:00 5 8 Noroeste 15 Noroeste 0 -- -- 70
2019-03-25 23:00:00 3 2 Norte 6 Sudeste 0 -- -- 74
2019-03-25 22:00:00 5.1 4 Sudeste 12 Sudeste 0 -- -- 67
2019-03-25 21:00:00 9.8 4 Sur 21 Noroeste 0 -- -- 51
2019-03-25 20:00:00 12.4 13 Noroeste 31 Oeste 0 -- -- 45
2019-03-25 19:00:00 14.6 21 Noroeste 37 Oeste 0 -- -- 43
2019-03-25 18:00:00 16.1 27 Noroeste 42 Noroeste 0 -- -- 43
2019-03-25 17:00:00 16.9 28 Noroeste 41 Oeste 0 -- -- 44
2019-03-25 16:00:00 16.7 24 Noroeste 37 Noroeste 0 -- -- 46
2019-03-25 15:00:00 16.1 23 Noroeste 36 Oeste 0 -- -- 44
2019-03-25 14:00:00 15 28 Noroeste 37 Noroeste 0 -- -- 46
2019-03-25 13:00:00 14.2 26 Noroeste 38 Noroeste 0 -- -- 49
2019-03-25 12:00:00 13.5 24 Noroeste 34 Noroeste 0 -- -- 50
2019-03-25 11:00:00 11.9 25 Noroeste 35 Oeste 0 -- -- 57
2019-03-25 10:00:00 11.2 18 Noroeste 25 Oeste 0 -- -- 56
2019-03-25 09:00:00 9.7 18 Noroeste 24 Noroeste 0 -- -- 59
2019-03-25 08:00:00 6.2 12 Noroeste 16 Noroeste 0 -- -- 76
2019-03-25 07:00:00 -0.4 0 Calma 9 Sudeste 0 -- -- 92
2019-03-25 06:00:00 -0.7 6 Sudeste 8 Sudeste 0 -- -- 93
2019-03-25 05:00:00 -0.5 7 Sudeste 8 Sudeste 0 -- -- 90
2019-03-25 04:00:00 0 8 Sudeste 9 Sudeste 0 -- -- 87
2019-03-25 03:00:00 1.1 5 Sudeste 10 Sudeste 0 -- -- 86
2019-03-25 02:00:00 1.9 6 Sudeste 9 Sudeste 0 -- -- 82
2019-03-25 01:00:00 2.8 5 Sudeste 11 Sudeste 0 -- -- 78
2019-03-25 00:00:00 3.7 9 Sudeste 11 Sudeste 0 -- -- 75
2019-03-24 23:00:00 3.9 6 Sudeste 15 Sudeste 0 -- -- 74
2019-03-24 22:00:00 5.6 10 Sudeste 14 Sudeste 0 -- -- 69
2019-03-24 21:00:00 6.6 7 Sudeste 10 Sudeste 0 -- -- 67
2019-03-24 20:00:00 9.1 5 Sudeste 14 Sudeste 0 -- -- 60
2019-03-24 19:00:00 14.3 10 Sur 18 Sudoeste 0 -- -- 44
2019-03-24 18:00:00 17 11 Sur 21 Sur 0 -- -- 37
2019-03-24 17:00:00 18.6 10 Sudoeste 26 Sudoeste 0 -- -- 34
2019-03-24 16:00:00 18.9 14 Sudoeste 27 Oeste 0 -- -- 33
2019-03-24 15:00:00 20 13 Oeste 29 Noroeste 0 -- -- 33
2019-03-24 14:00:00 19.3 12 Noroeste 27 Noroeste 0 -- -- 34
2019-03-24 13:00:00 19.6 13 Noroeste 20 Noroeste 0 -- -- 33
2019-03-24 12:00:00 19 7 Oeste 16 Oeste 0 -- -- 34
2019-03-24 11:00:00 17.8 9 Oeste 16 Noroeste 0 -- -- 35
2019-03-24 10:00:00 16.2 7 Oeste 13 Noroeste 0 -- -- 40
2019-03-24 09:00:00 11 0 Calma 7 Sudeste 0 -- -- 62
2019-03-24 08:00:00 2.5 6 Sudeste 9 Sudeste 0 -- -- 83
2019-03-24 07:00:00 -1 6 Sudeste 9 Sudeste 0 -- -- 92
2019-03-24 06:00:00 -1.1 6 Sudeste 9 Sudeste 0 -- -- 92
2019-03-24 05:00:00 -0.7 8 Sudeste 9 Sudeste 0 -- -- 91
2019-03-24 04:00:00 -0.5 6 Sudeste 9 Sudeste 0 -- -- 88
2019-03-24 03:00:00 -0.4 6 Sudeste 9 Sudeste 0 -- -- 85
2019-03-24 02:00:00 -0.1 8 Sudeste 9 Sudeste 0 -- -- 81
2019-03-24 01:00:00 0.5 7 Sudeste 9 Sudeste 0 -- -- 78
2019-03-24 00:00:00 1.1 6 Sudeste 9 Sudeste 0 -- -- 76
2019-03-23 23:00:00 2.1 6 Sudeste 8 Sudeste 0 -- -- 74
2019-03-23 22:00:00 3.2 6 Sudeste 9 Sudeste 0 -- -- 71
2019-03-23 21:00:00 5.4 8 Sudeste 10 Sudeste 0 -- -- 65
2019-03-23 20:00:00 9 8 Sudeste 10 Sudeste 0 -- -- 54
2019-03-23 19:00:00 14.8 5 Sur 18 Sudoeste 0 -- -- 35
2019-03-23 18:00:00 17.2 10 Sudoeste 20 Sudoeste 0 -- -- 32
2019-03-23 17:00:00 18.9 9 Sudoeste 22 Noroeste 0 -- -- 31
2019-03-23 16:00:00 19.5 8 Oeste 24 Noroeste 0 -- -- 37
2019-03-23 15:00:00 19.6 13 Oeste 29 Noroeste 0 -- -- 36
2019-03-23 14:00:00 18.9 16 Oeste 24 Noroeste 0 -- -- 38
2019-03-23 13:00:00 18.3 16 Noroeste 25 Noroeste 0 -- -- 40
2019-03-23 12:00:00 17.5 12 Oeste 22 Oeste 0 -- -- 42
2019-03-23 11:00:00 17.4 4 Sudeste 14 Noroeste 0 -- -- 36
2019-03-23 10:00:00 14.6 6 Oeste 9 Noroeste 0 -- -- 49
2019-03-23 09:00:00 8.7 0 Calma 8 Sudeste 0 -- -- 74
2019-03-23 08:00:00 0.7 7 Sudeste 9 Sudeste 0 -- -- 92
2019-03-23 07:00:00 -2.1 7 Sudeste 10 Sudeste 0 -- -- 96
2019-03-23 06:00:00 -1.8 6 Sudeste 9 Sudeste 0 -- -- 95
2019-03-23 05:00:00 -1.6 6 Sudeste 10 Sudeste 0 -- -- 94
2019-03-23 04:00:00 -1.6 8 Sudeste 10 Sudeste 0 -- -- 93
2019-03-23 03:00:00 -1.4 7 Sudeste 10 Sudeste 0 -- -- 91
2019-03-23 02:00:00 -0.9 7 Sudeste 9 Sudeste 0 -- -- 91
2019-03-23 01:00:00 -0.1 8 Sudeste 10 Sudeste 0 -- -- 89
2019-03-23 00:00:00 0.9 5 Sudeste 9 Sudeste 0 -- -- 87
2019-03-22 23:00:00 1.7 6 Sudeste 9 Sudeste 0 -- -- 84
2019-03-22 22:00:00 2.7 8 Sudeste 12 Sudeste 0 -- -- 80
2019-03-22 21:00:00 4 9 Sudeste 11 Sudeste 0 -- -- 75
2019-03-22 20:00:00 7.7 6 Sudeste 15 Sudeste 0 -- -- 63
2019-03-22 19:00:00 12.2 6 Sudeste 21 Sur 0 -- -- 50
2019-03-22 18:00:00 15.5 10 Sudoeste 22 Sudoeste 0 -- -- 41
2019-03-22 17:00:00 17.4 12 Noroeste 22 Noroeste 0 -- -- 41
2019-03-22 16:00:00 16.7 8 Norte 32 Norte 0 -- -- 42
2019-03-22 15:00:00 16.4 8 Noroeste 25 Oeste 0 -- -- 43
2019-03-22 14:00:00 17.1 10 Sudoeste 19 Sudeste 0 -- -- 42
2019-03-22 13:00:00 16.6 7 Oeste 22 Este 0 -- -- 43
2019-03-22 12:00:00 15.6 6 Oeste 15 Este 0 -- -- 41
2019-03-22 11:00:00 14.6 3 Sudeste 17 Oeste 0 -- -- 42
2019-03-22 10:00:00 12 13 Noroeste 17 Oeste 0 -- -- 49
2019-03-22 09:00:00 8.3 2 Oeste 6 Sudeste 0 -- -- 65
2019-03-22 08:00:00 1.4 4 Sudeste 8 Sudeste 0 -- -- 94
2019-03-22 07:00:00 -0.8 6 Sudeste 9 Sudeste 0 -- -- 96
2019-03-22 06:00:00 -2.7 6 Sudeste 9 Sudeste 0 -- -- 97
2019-03-22 05:00:00 -3.4 6 Sudeste 8 Sudeste 0 -- -- 96
2019-03-22 04:00:00 -3.1 6 Sudeste 9 Sudeste 0 -- -- 96
2019-03-22 03:00:00 -2.9 5 Sudeste 9 Sudeste 0 -- -- 95
2019-03-22 02:00:00 -2.8 6 Sudeste 9 Sudeste 0 -- -- 94
2019-03-22 01:00:00 -2.5 5 Sudeste 8 Sudeste 0 -- -- 92
2019-03-22 00:00:00 -1.9 5 Sudeste 9 Sudeste 0 -- -- 91
2019-03-21 23:00:00 -0.9 5 Sudeste 9 Sudeste 0 -- -- 88
2019-03-21 22:00:00 0.4 5 Sudeste 14 Sudeste 0 -- -- 84
2019-03-21 21:00:00 2.2 10 Sudeste 13 Sudeste 0 -- -- 79
2019-03-21 20:00:00 4.8 8 Sudeste 13 Sudoeste 0 -- -- 70
2019-03-21 19:00:00 9.2 7 Sur 17 Sur 0 -- -- 56
2019-03-21 18:00:00 11.6 10 Sudoeste 18 Sudoeste 0 -- -- 46
2019-03-21 17:00:00 12.7 9 Sudoeste 22 Sur 0 -- -- 42
2019-03-21 16:00:00 13.6 13 Noroeste 23 Noroeste 0 -- -- 36
2019-03-21 15:00:00 14.5 13 Sudeste 24 Sudeste 0 -- -- 29
2019-03-21 14:00:00 13.5 10 Noroeste 20 Nordeste 0 -- -- 35
2019-03-21 13:00:00 13 7 Nordeste 18 Nordeste 0 -- -- 38
2019-03-21 12:00:00 11.1 6 Noroeste 18 Nordeste 0 -- -- 48
2019-03-21 11:00:00 9.8 8 Noroeste 18 Noroeste 0 -- -- 55
2019-03-21 10:00:00 6.9 14 Oeste 19 Noroeste 0 -- -- 67
2019-03-21 09:00:00 4.6 10 Noroeste 15 Oeste 0 -- -- 77
2019-03-21 08:00:00 -2.8 2 Sudeste 8 Sudeste 0 -- -- 91
2019-03-21 07:00:00 -5.8 6 Sudeste 9 Sudeste 0 -- -- 94
2019-03-21 06:00:00 -5.4 5 Sudeste 8 Sudeste 0 -- -- 94
2019-03-21 05:00:00 -4.9 5 Sudeste 8 Sudeste 0 -- -- 93
2019-03-21 04:00:00 -4.1 3 Sudeste 9 Sudeste 0 -- -- 92
2019-03-21 03:00:00 -3.7 5 Sudeste 8 Sudeste 0 -- -- 92
2019-03-21 02:00:00 -3.1 5 Sudeste 7 Sudeste 0 -- -- 91
2019-03-21 01:00:00 -2 6 Sudeste 8 Sudeste 0 -- -- 89
2019-03-21 00:00:00 -0.1 5 Sudeste 6 Sudeste 0 -- -- 83